Startpagina
METAR-TAF:

METAR-TAF

Vliegvelden :

Mysore, India

breedte: 12-13-48N, lengte: 76-39-21E, hoogte: 715 m

Actueel weer

Dit bericht is 30 minuten geleden gemaakt, om 12:00 UTC
Wind 5 kt uit het zuidzuidoosten
Temperatuur 35°C
Vochtigheid 23%
Druk 1013 hPa
Zicht 10 km of meer
Weinig wolken op 1500 ft

METAR: VOMY 251200Z 15005KT 9999 FEW015 35/11 Q1013

Tijdstip: 18:00 (12:30 UTC)

Verwachting

Dit bericht is 4 uur en het 30 minuten geleden gemaakt, om 08:00 UTC
Verwachting geldig van 25 om 09 UTC tot 25 om 18 UTC
Wind 10 kt uit het oostzuidoosten
Zicht: 6000 m
Verspreide wolken op 1500 ft

TAF: VOMY 250800Z 2509/2518 11010KT 6000 SCT015

Waarnemingen en weersverwachtingen van meer dan 4000 vliegvelden (METAR en TAF).

De beschikbare stations zijn de gele en rode punten op de kaart.

Ga met uw muis naar het station om de naam te zien.

Klik dan om waarnemingen en weersverwachtingen te zien.

kaart wijzigen: klik op de groene knoppen met een zwart kruis om in te zoomen, op de groene knop met een streepje om uit te zoomen of op de groene pijlen voor aangrenzende kaarten.


METAR-TAF: